createdAt,value
2023-02-21T00:01:46.556Z,48.40
2023-02-21T00:04:33.181Z,49.10
2023-02-21T00:07:19.221Z,49.10
2023-02-21T00:10:05.149Z,48.70
2023-02-21T00:12:52.572Z,48.90
2023-02-21T00:15:40.520Z,48.70
2023-02-21T00:18:26.551Z,49.20
2023-02-21T00:21:13.234Z,48.90
2023-02-21T00:23:59.479Z,48.80
2023-02-21T00:26:45.748Z,50.30
2023-02-21T00:29:33.082Z,48.60
2023-02-21T00:32:19.894Z,48.90
2023-02-21T00:35:06.062Z,48.70
2023-02-21T00:37:52.121Z,49.10
2023-02-21T00:40:38.066Z,48.80
2023-02-21T00:43:24.021Z,48.80
2023-02-21T00:46:11.245Z,50.10
2023-02-21T00:48:57.209Z,50.00
2023-02-21T00:51:43.285Z,48.90
2023-02-21T00:54:29.300Z,48.90
2023-02-21T00:57:15.703Z,50.50
2023-02-21T01:00:02.080Z,50.40
2023-02-21T01:02:49.725Z,50.30
2023-02-21T01:05:35.426Z,50.40
2023-02-21T01:08:21.346Z,49.30
2023-02-21T01:11:07.828Z,49.30
2023-02-21T01:13:53.835Z,50.40
2023-02-21T01:16:39.799Z,50.80
2023-02-21T01:19:26.993Z,49.30
2023-02-21T01:22:12.776Z,50.60
2023-02-21T01:24:58.750Z,49.10
2023-02-21T01:27:44.360Z,49.00
2023-02-21T01:30:30.349Z,49.20
2023-02-21T01:33:17.169Z,48.90
2023-02-21T01:36:04.130Z,49.10
2023-02-21T01:38:51.840Z,48.80
2023-02-21T01:41:38.359Z,49.20
2023-02-21T01:44:26.646Z,49.20
2023-02-21T01:47:12.326Z,49.00
2023-02-21T01:49:59.445Z,49.60
2023-02-21T01:52:46.917Z,49.20
2023-02-21T01:55:32.764Z,49.40
2023-02-21T01:58:18.982Z,49.20
2023-02-21T02:01:05.279Z,49.10
2023-02-21T02:03:53.006Z,49.40
2023-02-21T02:06:39.373Z,49.20
2023-02-21T02:09:38.057Z,49.40
2023-02-21T02:12:24.543Z,49.50
2023-02-21T02:15:06.227Z,49.20
2023-02-21T02:17:46.811Z,49.60
2023-02-21T02:20:59.466Z,49.30
2023-02-21T02:24:06.406Z,49.20
2023-02-21T02:27:12.197Z,49.40
2023-02-21T02:30:14.993Z,49.10
2023-02-21T02:33:06.061Z,49.20
2023-02-21T02:35:39.913Z,49.30
2023-02-21T02:38:18.243Z,49.50
2023-02-21T02:40:59.015Z,49.20
2023-02-21T02:43:33.383Z,49.20
2023-02-21T02:46:06.570Z,49.70
2023-02-21T02:48:37.840Z,49.80
2023-02-21T02:51:16.089Z,49.50
2023-02-21T02:53:44.438Z,49.60
2023-02-21T02:56:14.743Z,49.70
2023-02-21T02:58:51.437Z,49.50
2023-02-21T03:01:41.752Z,49.70
2023-02-21T03:04:28.715Z,49.80
2023-02-21T03:07:08.568Z,50.20
2023-02-21T03:09:49.257Z,51.10
2023-02-21T03:12:25.393Z,51.70
2023-02-21T03:15:03.744Z,50.00
2023-02-21T03:17:38.277Z,51.00
2023-02-21T03:20:09.350Z,51.60
2023-02-21T03:22:39.579Z,51.50
2023-02-21T03:25:08.946Z,51.60
2023-02-21T03:27:40.499Z,51.50
2023-02-21T03:30:10.439Z,51.60
2023-02-21T03:32:41.214Z,51.90
2023-02-21T03:35:09.421Z,51.90
2023-02-21T03:37:42.119Z,51.70
2023-02-21T03:40:14.726Z,51.80
2023-02-21T03:42:44.948Z,51.80
2023-02-21T03:45:13.175Z,52.20
2023-02-21T03:47:42.384Z,52.00
2023-02-21T03:50:11.878Z,52.10
2023-02-21T03:52:42.666Z,52.10
2023-02-21T03:55:12.602Z,52.10
2023-02-21T03:57:41.024Z,51.80
2023-02-21T04:00:10.607Z,52.30
2023-02-21T04:03:04.486Z,51.90
2023-02-21T04:05:32.580Z,52.20
2023-02-21T04:08:02.115Z,51.90
2023-02-21T04:10:33.961Z,52.10
2023-02-21T04:13:04.988Z,52.50
2023-02-21T04:15:33.193Z,52.10
2023-02-21T04:18:01.950Z,52.30
2023-02-21T04:20:30.275Z,52.20
2023-02-21T04:23:03.518Z,52.10
2023-02-21T04:25:37.025Z,51.90
2023-02-21T04:28:05.940Z,52.40
2023-02-21T04:30:34.382Z,52.10
2023-02-21T04:33:03.986Z,52.50
2023-02-21T04:35:32.190Z,52.50
2023-02-21T04:38:00.410Z,52.60
2023-02-21T04:40:28.723Z,52.80
2023-02-21T04:42:58.298Z,52.40
2023-02-21T04:45:26.744Z,52.50
2023-02-21T04:47:55.022Z,52.80
2023-02-21T04:50:23.484Z,52.70
2023-02-21T04:52:51.763Z,52.60
2023-02-21T04:55:22.333Z,52.50
2023-02-21T04:57:50.971Z,52.60
2023-02-21T05:00:20.945Z,52.60
2023-02-21T05:02:49.312Z,52.50
2023-02-21T05:05:18.084Z,51.20
2023-02-21T05:07:46.493Z,51.20
2023-02-21T05:10:16.675Z,51.40
2023-02-21T05:12:45.552Z,51.10
2023-02-21T05:15:15.360Z,52.20
2023-02-21T05:17:46.385Z,51.10
2023-02-21T05:20:14.718Z,51.00
2023-02-21T05:22:43.774Z,51.20
2023-02-21T05:25:16.671Z,52.60
2023-02-21T05:27:45.415Z,51.10
2023-02-21T05:30:16.348Z,52.50
2023-02-21T05:32:46.319Z,52.40
2023-02-21T05:35:16.719Z,52.60
2023-02-21T05:37:47.430Z,52.40
2023-02-21T05:40:18.015Z,52.50
2023-02-21T05:42:46.634Z,52.10
2023-02-21T05:45:14.987Z,52.60
2023-02-21T05:47:43.336Z,52.80
2023-02-21T05:50:12.884Z,52.60
2023-02-21T05:52:41.200Z,52.70
2023-02-21T05:55:09.447Z,52.60
2023-02-21T05:57:39.857Z,52.70
2023-02-21T06:00:09.415Z,52.80
2023-02-21T06:02:37.606Z,52.70
2023-02-21T06:05:06.726Z,52.80
2023-02-21T06:07:36.263Z,52.60
2023-02-21T06:10:05.440Z,52.90
2023-02-21T06:12:33.729Z,52.90
2023-02-21T06:15:02.295Z,53.00
2023-02-21T06:17:30.659Z,53.20
2023-02-21T06:19:59.162Z,53.20
2023-02-21T06:22:27.424Z,53.10
2023-02-21T06:24:57.192Z,53.20
2023-02-21T06:27:25.476Z,53.10
2023-02-21T06:29:54.089Z,53.40
2023-02-21T06:32:22.267Z,53.40
2023-02-21T06:34:50.600Z,53.30
2023-02-21T06:37:22.547Z,53.10
2023-02-21T06:39:50.999Z,53.10
2023-02-21T06:42:21.081Z,53.20
2023-02-21T06:44:50.278Z,53.50
2023-02-21T06:47:18.936Z,53.30
2023-02-21T06:49:47.330Z,53.50
2023-02-21T06:52:15.691Z,53.60
2023-02-21T06:54:44.827Z,53.50
2023-02-21T06:57:13.045Z,53.90
2023-02-21T06:59:42.597Z,53.90
2023-02-21T07:02:18.278Z,53.80
2023-02-21T07:04:47.398Z,54.10
2023-02-21T07:07:15.862Z,53.70
2023-02-21T07:09:44.054Z,53.80
2023-02-21T07:12:12.438Z,53.90
2023-02-21T07:14:41.973Z,53.70
2023-02-21T07:17:10.415Z,54.00
2023-02-21T07:19:38.564Z,54.20
2023-02-21T07:22:06.952Z,54.10
2023-02-21T07:24:36.665Z,54.40
2023-02-21T07:27:08.373Z,54.00
2023-02-21T07:29:36.580Z,54.20
2023-02-21T07:32:06.562Z,54.50
2023-02-21T07:34:35.178Z,54.40
2023-02-21T07:37:03.531Z,54.50
2023-02-21T07:39:31.762Z,52.90
2023-02-21T07:42:00.195Z,52.80
2023-02-21T07:44:28.592Z,53.10
2023-02-21T07:46:57.523Z,53.00
2023-02-21T07:49:27.400Z,53.10
2023-02-21T07:51:56.160Z,53.00
2023-02-21T07:54:24.621Z,52.80
2023-02-21T07:56:53.350Z,53.10
2023-02-21T07:59:21.974Z,52.90
2023-02-21T08:01:50.224Z,52.70
2023-02-21T08:04:21.130Z,52.60
2023-02-21T08:07:16.934Z,52.70
2023-02-21T08:09:45.258Z,52.70
2023-02-21T08:12:13.801Z,52.60
2023-02-21T08:14:51.169Z,52.50
2023-02-21T08:17:19.734Z,52.40
2023-02-21T08:19:47.975Z,52.10
2023-02-21T08:22:19.698Z,52.10
2023-02-21T08:24:50.699Z,52.10
2023-02-21T08:27:19.764Z,52.00
2023-02-21T08:29:50.972Z,52.20
2023-02-21T08:32:20.661Z,51.80
2023-02-21T08:34:49.495Z,52.00
2023-02-21T08:37:20.091Z,52.10
2023-02-21T08:39:48.912Z,52.10
2023-02-21T08:42:17.516Z,52.00
2023-02-21T08:44:46.878Z,51.50
2023-02-21T08:47:17.356Z,51.50
2023-02-21T08:49:47.495Z,51.40
2023-02-21T08:52:17.525Z,51.50
2023-02-21T08:54:47.331Z,51.50
2023-02-21T08:57:15.871Z,51.40
2023-02-21T08:59:45.911Z,51.20
2023-02-21T09:02:17.922Z,51.40
2023-02-21T09:04:47.322Z,51.30
2023-02-21T09:07:20.573Z,50.90
2023-02-21T09:09:51.567Z,51.00
2023-02-21T09:12:20.294Z,50.90
2023-02-21T09:14:48.861Z,51.00
2023-02-21T09:17:17.655Z,51.30
2023-02-21T09:19:46.099Z,51.10
2023-02-21T09:22:14.919Z,51.10
2023-02-21T09:24:43.757Z,50.90
2023-02-21T09:27:17.706Z,50.80
2023-02-21T09:29:47.324Z,50.70
2023-02-21T09:32:16.138Z,50.70
2023-02-21T09:34:44.704Z,50.60
2023-02-21T09:37:13.781Z,50.70
2023-02-21T09:39:42.573Z,50.60
2023-02-21T09:42:15.627Z,50.50
2023-02-21T09:44:45.506Z,50.90
2023-02-21T09:47:19.101Z,50.40
2023-02-21T09:49:48.603Z,50.60
2023-02-21T09:52:23.830Z,50.30
2023-02-21T09:54:58.570Z,50.30
2023-02-21T09:57:28.467Z,50.00
2023-02-21T09:59:56.928Z,50.10
2023-02-21T10:02:44.591Z,50.00
2023-02-21T10:05:24.096Z,50.00
2023-02-21T10:08:00.686Z,50.00
2023-02-21T10:10:34.830Z,49.40
2023-02-21T10:13:11.813Z,49.60
2023-02-21T10:15:46.684Z,49.50
2023-02-21T10:18:26.574Z,49.60
2023-02-21T10:20:59.700Z,49.10
2023-02-21T10:23:34.751Z,49.60
2023-02-21T10:26:09.462Z,49.50
2023-02-21T10:28:40.653Z,49.30
2023-02-21T10:31:13.230Z,49.40
2023-02-21T10:33:41.875Z,49.50
2023-02-21T10:36:17.364Z,49.20
2023-02-21T10:38:54.898Z,49.20
2023-02-21T10:41:25.067Z,49.30
2023-02-21T10:44:01.125Z,49.00
2023-02-21T10:46:35.182Z,49.10
2023-02-21T10:49:22.798Z,48.80
2023-02-21T10:52:10.487Z,48.50
2023-02-21T10:54:40.679Z,48.50
2023-02-21T10:57:12.586Z,48.40
2023-02-21T10:59:44.618Z,48.30
2023-02-21T11:02:33.611Z,48.50
2023-02-21T11:05:15.509Z,48.50
2023-02-21T11:07:56.427Z,48.00
2023-02-21T11:10:36.396Z,48.10
2023-02-21T11:13:08.007Z,47.90
2023-02-21T11:15:39.115Z,46.60
2023-02-21T11:18:15.328Z,46.50
2023-02-21T11:20:44.121Z,46.60
2023-02-21T11:23:21.615Z,46.20
2023-02-21T11:25:50.570Z,46.50
2023-02-21T11:28:21.663Z,46.50
2023-02-21T11:31:05.752Z,45.90
2023-02-21T11:33:39.871Z,45.60
2023-02-21T11:36:12.776Z,45.50
2023-02-21T11:38:43.650Z,45.30
2023-02-21T11:41:22.963Z,45.00
2023-02-21T11:43:52.326Z,45.40
2023-02-21T11:46:35.600Z,45.20
2023-02-21T11:49:09.381Z,44.50
2023-02-21T11:51:46.800Z,44.90
2023-02-21T11:54:15.869Z,44.40
2023-02-21T11:56:52.019Z,43.80
2023-02-21T11:59:39.037Z,43.60
2023-02-21T12:02:50.847Z,43.90
2023-02-21T12:05:32.142Z,43.50
2023-02-21T12:08:18.429Z,44.20
2023-02-21T12:11:00.579Z,43.90
2023-02-21T12:13:38.677Z,44.30
2023-02-21T12:16:15.712Z,44.40
2023-02-21T12:19:01.232Z,43.90
2023-02-21T12:21:52.268Z,43.90
2023-02-21T12:24:37.605Z,43.90
2023-02-21T12:27:16.571Z,43.90
2023-02-21T12:29:58.339Z,43.90
2023-02-21T12:32:45.628Z,43.90
2023-02-21T12:35:37.894Z,43.60
2023-02-21T12:38:19.862Z,43.40
2023-02-21T12:40:57.612Z,43.60
2023-02-21T12:43:42.790Z,43.60
2023-02-21T12:46:21.451Z,43.30
2023-02-21T12:48:55.732Z,43.10
2023-02-21T12:51:31.235Z,43.40
2023-02-21T12:54:04.297Z,43.20
2023-02-21T12:56:39.346Z,43.10
2023-02-21T12:59:16.448Z,42.80
2023-02-21T13:01:49.097Z,43.10
2023-02-21T13:04:25.532Z,42.70
2023-02-21T13:07:05.526Z,42.50
2023-02-21T13:09:39.003Z,42.30
2023-02-21T13:12:12.596Z,42.50
2023-02-21T13:14:45.948Z,42.20
2023-02-21T13:17:17.013Z,42.60
2023-02-21T13:19:49.854Z,42.40
2023-02-21T13:22:23.994Z,42.40
2023-02-21T13:25:00.318Z,41.70
2023-02-21T13:27:59.006Z,41.60
2023-02-21T13:30:38.713Z,41.50
2023-02-21T13:33:07.764Z,41.90
2023-02-21T13:35:39.747Z,42.10
2023-02-21T13:38:11.709Z,42.00
2023-02-21T13:40:50.982Z,42.00
2023-02-21T13:43:25.608Z,41.70
2023-02-21T13:45:54.162Z,42.00
2023-02-21T13:48:26.769Z,41.90
2023-02-21T13:50:56.249Z,42.10
2023-02-21T13:53:27.030Z,42.00
2023-02-21T13:56:16.878Z,42.10
2023-02-21T13:58:50.318Z,42.20
2023-02-21T14:01:50.265Z,42.70
2023-02-21T14:05:04.002Z,42.40
2023-02-21T14:08:07.518Z,42.50
2023-02-21T14:10:42.059Z,42.20
2023-02-21T14:13:23.683Z,41.90
2023-02-21T14:15:59.233Z,41.60
2023-02-21T14:18:31.585Z,41.60
2023-02-21T14:21:02.715Z,41.90
2023-02-21T14:23:42.679Z,41.80
2023-02-21T14:26:40.686Z,41.80
2023-02-21T14:29:30.126Z,41.90
2023-02-21T14:32:16.851Z,42.20
2023-02-21T14:34:55.712Z,41.90
2023-02-21T14:37:29.001Z,42.20
2023-02-21T14:40:02.197Z,42.20
2023-02-21T14:42:53.641Z,42.50
2023-02-21T14:45:36.996Z,42.40
2023-02-21T14:48:18.381Z,42.50
2023-02-21T14:51:28.130Z,42.60
2023-02-21T14:54:29.728Z,42.60
2023-02-21T14:57:17.800Z,42.50
2023-02-21T15:00:07.068Z,42.50
2023-02-21T15:02:42.785Z,42.60
2023-02-21T15:05:18.173Z,42.70
2023-02-21T15:07:57.695Z,42.80
2023-02-21T15:10:28.852Z,42.30
2023-02-21T15:13:00.376Z,42.70
2023-02-21T15:15:31.171Z,42.40
2023-02-21T15:18:06.746Z,42.20
2023-02-21T15:20:37.365Z,42.40
2023-02-21T15:23:14.773Z,42.60
2023-02-21T15:25:43.590Z,43.00
2023-02-21T15:28:25.028Z,42.30
2023-02-21T15:31:03.356Z,42.70
2023-02-21T15:33:35.057Z,42.70
2023-02-21T15:36:06.988Z,42.60
2023-02-21T15:38:40.729Z,42.50
2023-02-21T15:41:15.827Z,42.30
2023-02-21T15:43:51.030Z,42.60
2023-02-21T15:46:24.844Z,42.60
2023-02-21T15:48:57.155Z,42.00
2023-02-21T15:51:30.020Z,42.50
2023-02-21T15:54:26.331Z,42.80
2023-02-21T15:57:23.673Z,42.80
2023-02-21T16:00:13.099Z,42.80
2023-02-21T16:02:41.366Z,42.80
2023-02-21T16:05:26.405Z,43.10
2023-02-21T16:08:01.208Z,42.90
2023-02-21T16:10:29.813Z,43.20
2023-02-21T16:17:27.171Z,44.80
2023-02-21T16:19:59.311Z,44.70
2023-02-21T16:22:38.750Z,44.80
2023-02-21T16:25:18.895Z,45.60
2023-02-21T16:27:50.640Z,45.50
2023-02-21T16:30:21.333Z,45.30
2023-02-21T16:32:52.289Z,45.40
2023-02-21T16:35:22.796Z,45.70
2023-02-21T16:37:57.288Z,45.60
2023-02-21T16:40:28.592Z,45.90
2023-02-21T16:42:58.028Z,45.90
2023-02-21T16:45:26.361Z,45.70
2023-02-21T16:47:58.330Z,45.70
2023-02-21T16:50:30.778Z,46.00
2023-02-21T16:53:01.210Z,45.90
2023-02-21T16:55:31.105Z,45.90
2023-02-21T16:58:05.200Z,45.90
2023-02-21T17:00:34.921Z,46.10
2023-02-21T17:03:03.395Z,46.20
2023-02-21T17:05:31.851Z,46.10
2023-02-21T17:08:01.769Z,46.20
2023-02-21T17:10:36.005Z,46.10
2023-02-21T17:13:04.888Z,46.30
2023-02-21T17:15:33.257Z,46.40
2023-02-21T17:18:01.945Z,46.40
2023-02-21T17:20:31.463Z,46.20
2023-02-21T17:23:04.001Z,46.30
2023-02-21T17:25:36.603Z,46.40
2023-02-21T17:28:05.735Z,46.50
2023-02-21T17:30:34.894Z,46.70
2023-02-21T17:33:11.242Z,46.70
2023-02-21T17:35:40.017Z,46.70
2023-02-21T17:38:10.844Z,46.70
2023-02-21T17:40:39.530Z,47.00
2023-02-21T17:43:09.216Z,47.00
2023-02-21T17:45:37.975Z,47.10
2023-02-21T17:48:07.145Z,47.10
2023-02-21T17:50:35.740Z,47.30
2023-02-21T17:53:04.799Z,47.30
2023-02-21T17:55:34.827Z,47.40
2023-02-21T17:58:03.489Z,47.30
2023-02-21T18:00:34.664Z,47.20
2023-02-21T18:03:04.383Z,47.20
2023-02-21T18:05:33.181Z,47.40
2023-02-21T18:08:01.718Z,47.30
2023-02-21T18:10:30.635Z,47.40
2023-02-21T18:13:01.807Z,47.50
2023-02-21T18:15:30.557Z,47.40
2023-02-21T18:18:06.767Z,46.80
2023-02-21T18:20:35.956Z,47.40
2023-02-21T18:23:06.507Z,47.40
2023-02-21T18:25:35.387Z,46.80
2023-02-21T18:28:05.708Z,47.20
2023-02-21T18:30:34.212Z,47.10
2023-02-21T18:33:03.051Z,47.20
2023-02-21T18:35:31.944Z,46.80
2023-02-21T18:38:00.425Z,47.30
2023-02-21T18:40:35.320Z,47.40
2023-02-21T18:43:07.070Z,47.50
2023-02-21T18:45:36.349Z,47.50
2023-02-21T18:48:05.071Z,47.50
2023-02-21T18:50:33.729Z,47.70
2023-02-21T18:53:02.596Z,47.80
2023-02-21T18:55:31.103Z,47.30
2023-02-21T18:57:59.708Z,47.40
2023-02-21T19:00:30.802Z,47.60
2023-02-21T19:02:59.604Z,47.60
2023-02-21T19:05:28.348Z,47.40
2023-02-21T19:07:57.293Z,47.80
2023-02-21T19:10:26.632Z,47.80
2023-02-21T19:12:55.397Z,47.70
2023-02-21T19:15:24.030Z,47.80
2023-02-21T19:17:54.431Z,47.80
2023-02-21T19:20:22.819Z,48.00
2023-02-21T19:22:55.653Z,47.90
2023-02-21T19:25:27.857Z,48.00
2023-02-21T19:28:01.276Z,47.60
2023-02-21T19:30:37.027Z,47.70
2023-02-21T19:33:09.085Z,47.50
2023-02-21T19:35:39.581Z,47.80
2023-02-21T19:38:10.287Z,47.30
2023-02-21T19:40:39.762Z,47.70
2023-02-21T19:43:09.123Z,47.80
2023-02-21T19:45:37.596Z,47.80
2023-02-21T19:48:08.333Z,47.90
2023-02-21T19:50:37.004Z,47.70
2023-02-21T19:53:06.289Z,48.10
2023-02-21T19:55:35.183Z,48.00
2023-02-21T19:58:07.129Z,48.00
2023-02-21T20:00:37.810Z,47.80
2023-02-21T20:03:10.488Z,47.90
2023-02-21T20:05:39.775Z,47.80
2023-02-21T20:08:09.399Z,47.90
2023-02-21T20:10:38.107Z,47.70
2023-02-21T20:13:07.595Z,47.70
2023-02-21T20:15:37.682Z,47.80
2023-02-21T20:18:07.138Z,47.70
2023-02-21T20:20:38.542Z,47.80
2023-02-21T20:23:11.119Z,48.00
2023-02-21T20:25:40.172Z,47.80
2023-02-21T20:28:09.222Z,47.80
2023-02-21T20:30:40.241Z,47.90
2023-02-21T20:33:10.204Z,48.10
2023-02-21T20:35:40.365Z,47.90
2023-02-21T20:38:10.794Z,47.80
2023-02-21T20:40:40.511Z,47.90
2023-02-21T20:43:10.686Z,47.60
2023-02-21T20:45:46.294Z,48.00
2023-02-21T20:48:19.140Z,47.80
2023-02-21T20:50:55.866Z,47.70
2023-02-21T20:53:29.343Z,47.80
2023-02-21T20:55:58.924Z,47.80
2023-02-21T20:58:46.842Z,48.00
2023-02-21T21:01:17.719Z,47.40
2023-02-21T21:03:46.842Z,47.70
2023-02-21T21:06:18.270Z,47.90
2023-02-21T21:08:49.235Z,48.00
2023-02-21T21:11:40.091Z,48.00
2023-02-21T21:14:09.915Z,48.10
2023-02-21T21:16:40.530Z,48.10
2023-02-21T21:19:11.524Z,48.20
2023-02-21T21:21:43.080Z,48.20
2023-02-21T21:24:12.624Z,48.20
2023-02-21T21:26:50.943Z,48.10
2023-02-21T21:29:24.994Z,48.10
2023-02-21T21:31:56.319Z,48.10
2023-02-21T21:34:28.488Z,48.20
2023-02-21T21:37:01.548Z,48.10
2023-02-21T21:39:31.580Z,48.30
2023-02-21T21:42:05.430Z,48.30
2023-02-21T21:44:34.733Z,48.40
2023-02-21T21:47:03.507Z,48.10
2023-02-21T21:49:34.866Z,48.00
2023-02-21T21:52:05.764Z,48.60
2023-02-21T21:54:36.157Z,48.40
2023-02-21T21:57:09.717Z,48.40
2023-02-21T21:59:40.852Z,48.40
2023-02-21T22:02:11.482Z,48.20
2023-02-21T22:04:40.677Z,48.70
2023-02-21T22:07:12.914Z,48.50
2023-02-21T22:09:43.183Z,48.10
2023-02-21T22:12:18.497Z,48.60
2023-02-21T22:14:49.842Z,48.20
2023-02-21T22:17:19.768Z,48.40
2023-02-21T22:19:48.264Z,48.40
2023-02-21T22:22:18.185Z,48.30
2023-02-21T22:24:46.471Z,48.20
2023-02-21T22:27:14.866Z,48.40
2023-02-21T22:29:43.352Z,48.50
2023-02-21T22:32:12.119Z,48.40
2023-02-21T22:34:40.395Z,48.40
2023-02-21T22:37:10.367Z,48.60
2023-02-21T22:39:40.122Z,48.50
2023-02-21T22:42:09.331Z,48.60
2023-02-21T22:44:37.727Z,48.40
2023-02-21T22:47:06.334Z,48.20
2023-02-21T22:49:34.474Z,48.60
2023-02-21T22:52:05.218Z,48.90
2023-02-21T22:54:33.458Z,48.90
2023-02-21T22:57:03.975Z,48.50
2023-02-21T22:59:35.385Z,48.50
2023-02-21T23:02:04.495Z,48.80
2023-02-21T23:04:36.758Z,48.80
2023-02-21T23:07:06.293Z,48.90
2023-02-21T23:09:36.850Z,48.70
2023-02-21T23:12:07.306Z,48.80
2023-02-21T23:14:35.744Z,48.90
2023-02-21T23:17:04.601Z,49.20
2023-02-21T23:19:32.864Z,49.10
2023-02-21T23:22:01.478Z,48.60
2023-02-21T23:24:29.959Z,48.90
2023-02-21T23:26:58.273Z,49.20
2023-02-21T23:29:28.062Z,49.10
2023-02-21T23:32:09.755Z,49.00
2023-02-21T23:35:36.810Z,48.90
2023-02-21T23:38:07.200Z,48.90
2023-02-21T23:40:42.193Z,48.90
2023-02-21T23:43:13.089Z,48.90
2023-02-21T23:45:43.198Z,48.80
2023-02-21T23:48:15.813Z,49.20
2023-02-21T23:50:46.472Z,49.00
2023-02-21T23:53:17.047Z,49.40
2023-02-21T23:55:46.632Z,49.10
2023-02-21T23:58:17.273Z,49.40
